Time;durP1;ratioP1;P1;durP2;ratioP2;P2;SDS_P1;SDS_P2;PMS_P1;PMS_P2;Temp;Humidity;BMP_temperature;BMP_pressure;BME280_temperature;BME280_humidity;BME280_pressure;Samples;Min_cycle;Max_cycle;Signal;HPM_P1;HPM_P2
2023/05/26 00:01:14;;;;;;;7.97;4.47;;;11.80;99.90;;;;;;4993848;28;20824;-72
2023/05/26 00:03:48;;;;;;;4.27;3.67;;;11.80;99.90;;;;;;5011511;28;20306;-72
2023/05/26 00:06:20;;;;;;;11.33;4.70;;;11.70;99.90;;;;;;5013400;28;20391;-70
2023/05/26 00:08:46;;;;;;;10.37;4.87;;;11.60;99.90;;;;;;5014540;28;20836;-71
2023/05/26 00:11:12;;;;;;;6.00;4.13;;;11.50;99.90;;;;;;5014868;28;20795;-72
2023/05/26 00:13:38;;;;;;;8.63;4.10;;;11.50;99.90;;;;;;5014825;28;20550;-72
2023/05/26 00:16:04;;;;;;;6.77;3.93;;;11.40;99.90;;;;;;5014763;28;20539;-72
2023/05/26 00:18:29;;;;;;;8.27;3.47;;;11.30;99.90;;;;;;4994839;28;20181;-71
2023/05/26 00:20:55;;;;;;;4.13;3.10;;;11.20;99.90;;;;;;4995124;28;20187;-72
2023/05/26 00:23:21;;;;;;;8.30;4.77;;;11.20;99.90;;;;;;4994766;28;20582;-72
2023/05/26 00:25:47;;;;;;;6.27;4.10;;;11.20;99.90;;;;;;4995098;28;20165;-73
2023/05/26 00:28:13;;;;;;;8.53;4.30;;;11.10;99.90;;;;;;4994738;28;20201;-73
2023/05/26 00:30:38;;;;;;;7.90;4.40;;;11.10;99.90;;;;;;4995146;28;20443;-74
2023/05/26 00:33:04;;;;;;;7.93;4.27;;;11.00;99.90;;;;;;4995109;28;20177;-71
2023/05/26 00:35:29;;;;;;;14.50;5.13;;;11.00;99.90;;;;;;4995011;28;20168;-71
2023/05/26 00:37:55;;;;;;;4.53;4.13;;;10.90;99.90;;;;;;4994708;28;20288;-71
2023/05/26 00:40:20;;;;;;;5.97;4.33;;;10.90;99.90;;;;;;4994630;28;20177;-71
2023/05/26 00:42:46;;;;;;;13.10;4.60;;;10.90;99.90;;;;;;4994620;28;20592;-71
2023/05/26 00:45:12;;;;;;;3.80;3.43;;;10.80;99.90;;;;;;4994489;28;20230;-72
2023/05/26 00:47:37;;;;;;;8.73;4.83;;;10.80;99.90;;;;;;4994031;28;20228;-72
2023/05/26 00:50:04;;;;;;;7.03;4.57;;;10.80;99.90;;;;;;4994602;28;20176;-72
2023/05/26 00:52:32;;;;;;;13.23;4.33;;;10.80;99.90;;;;;;4994685;28;20157;-73
2023/05/26 00:54:58;;;;;;;5.33;3.83;;;10.80;99.90;;;;;;4994650;28;20401;-73
2023/05/26 00:57:27;;;;;;;7.40;5.00;;;10.80;99.90;;;;;;4994300;28;20424;-73
2023/05/26 00:59:55;;;;;;;10.13;4.53;;;10.80;99.90;;;;;;4994524;28;20408;-75
2023/05/26 01:02:22;;;;;;;11.10;4.50;;;10.80;99.90;;;;;;4994317;28;20412;-73
2023/05/26 01:04:52;;;;;;;5.30;3.30;;;10.80;99.90;;;;;;4994746;28;20404;-73
2023/05/26 01:07:18;;;;;;;7.27;4.20;;;10.80;99.90;;;;;;4994178;28;20976;-70
2023/05/26 01:09:44;;;;;;;13.30;4.27;;;10.80;99.90;;;;;;4994487;28;20609;-71
2023/05/26 01:12:16;;;;;;;10.70;4.17;;;10.80;99.90;;;;;;4994327;28;20499;-71
2023/05/26 01:15:00;;;;;;;13.30;4.73;;;10.70;99.90;;;;;;4994453;28;20177;-72
2023/05/26 01:17:31;;;;;;;9.47;4.83;;;10.70;99.90;;;;;;4993305;28;20424;-72
2023/05/26 01:20:17;;;;;;;8.50;4.57;;;10.70;99.90;;;;;;4994163;28;20798;-72
2023/05/26 01:22:51;;;;;;;8.80;3.57;;;10.60;99.90;;;;;;4994081;28;20400;-72
2023/05/26 01:25:44;;;;;;;6.93;4.03;;;10.60;99.90;;;;;;4992966;28;20434;-72
2023/05/26 01:28:24;;;;;;;6.20;4.47;;;10.50;99.90;;;;;;4993583;28;20656;-72
2023/05/26 01:30:50;;;;;;;8.67;5.00;;;10.50;99.90;;;;;;4993904;28;20403;-72
2023/05/26 01:33:16;;;;;;;10.57;5.70;;;10.40;99.90;;;;;;4993788;28;20396;-72
2023/05/26 01:35:42;;;;;;;10.07;3.70;;;10.40;99.90;;;;;;4993858;28;20893;-72
2023/05/26 01:38:08;;;;;;;5.80;4.03;;;10.40;99.90;;;;;;4993298;28;20189;-72
2023/05/26 01:40:34;;;;;;;7.27;6.37;;;10.40;99.90;;;;;;4993666;28;20404;-72
2023/05/26 01:43:13;;;;;;;10.17;4.00;;;10.30;99.90;;;;;;4993610;28;20566;-72
2023/05/26 01:45:48;;;;;;;5.67;4.17;;;10.30;99.90;;;;;;4993725;28;20917;-72
2023/05/26 01:48:16;;;;;;;8.13;4.10;;;10.30;99.90;;;;;;4993310;28;20467;-73
2023/05/26 01:50:47;;;;;;;5.63;4.30;;;10.20;99.90;;;;;;4993587;28;20481;-72
2023/05/26 01:53:14;;;;;;;6.77;3.57;;;10.20;99.90;;;;;;4993538;28;20397;-73
2023/05/26 01:55:41;;;;;;;9.60;4.20;;;10.10;99.90;;;;;;4993533;28;20786;-73
2023/05/26 01:58:08;;;;;;;6.73;3.20;;;10.10;99.90;;;;;;4993127;28;20442;-73
2023/05/26 02:00:35;;;;;;;8.53;4.20;;;10.10;99.90;;;;;;4993477;28;20407;-73
2023/05/26 02:03:01;;;;;;;7.67;4.30;;;10.10;99.90;;;;;;4993347;28;20412;-72
2023/05/26 02:05:26;;;;;;;8.73;5.30;;;10.00;99.90;;;;;;4993379;28;20415;-72
2023/05/26 02:07:52;;;;;;;4.63;3.10;;;10.00;99.90;;;;;;4992846;28;20678;-72
2023/05/26 02:10:17;;;;;;;9.67;4.20;;;10.00;99.90;;;;;;4993296;28;20180;-72
2023/05/26 02:12:43;;;;;;;6.23;3.30;;;10.00;99.90;;;;;;4993052;28;20523;-72
2023/05/26 02:15:09;;;;;;;4.57;2.93;;;10.00;99.90;;;;;;4993143;28;20571;-72
2023/05/26 02:17:34;;;;;;;11.80;3.70;;;9.90;99.90;;;;;;4992717;28;20565;-72
2023/05/26 02:20:02;;;;;;;5.03;3.30;;;9.90;99.90;;;;;;4993226;28;20408;-72
2023/05/26 02:22:28;;;;;;;5.80;4.03;;;9.90;99.90;;;;;;4993261;28;20169;-73
2023/05/26 02:24:53;;;;;;;5.93;3.67;;;9.90;99.90;;;;;;4992936;28;20420;-72
2023/05/26 02:27:19;;;;;;;11.47;3.33;;;9.80;99.90;;;;;;4992853;28;20196;-72
2023/05/26 02:29:45;;;;;;;4.83;3.40;;;9.80;99.90;;;;;;4992899;28;20669;-72
2023/05/26 02:32:10;;;;;;;15.90;4.97;;;9.80;99.90;;;;;;4992975;28;20404;-72
2023/05/26 02:34:36;;;;;;;6.60;3.33;;;9.70;99.90;;;;;;4992979;28;20666;-72
2023/05/26 02:37:01;;;;;;;9.93;3.63;;;9.70;99.90;;;;;;4992652;28;20200;-72
2023/05/26 02:39:27;;;;;;;10.67;3.23;;;9.70;99.90;;;;;;4993067;28;20258;-72
2023/05/26 02:41:53;;;;;;;13.20;3.57;;;9.70;99.90;;;;;;4992816;28;20177;-72
2023/05/26 02:44:18;;;;;;;12.50;3.63;;;9.70;99.90;;;;;;4992768;28;20176;-72
2023/05/26 02:46:44;;;;;;;12.90;3.37;;;9.60;99.90;;;;;;4992660;28;20412;-72
2023/05/26 02:49:09;;;;;;;5.27;3.20;;;9.60;99.90;;;;;;4992443;28;20692;-72
2023/05/26 02:51:35;;;;;;;13.77;3.93;;;9.60;99.90;;;;;;4992757;28;20169;-72
2023/05/26 02:54:01;;;;;;;6.10;3.33;;;9.60;99.90;;;;;;4992802;28;20639;-72
2023/05/26 02:56:26;;;;;;;5.10;2.70;;;9.50;99.90;;;;;;4992531;28;20176;-72
2023/05/26 02:58:52;;;;;;;7.43;3.60;;;9.50;99.90;;;;;;4992160;28;20804;-72
2023/05/26 03:01:17;;;;;;;5.53;3.07;;;9.50;99.90;;;;;;4992620;28;20172;-72
2023/05/26 03:03:43;;;;;;;8.13;3.37;;;9.50;99.90;;;;;;4992737;28;20168;-72
2023/05/26 03:06:09;;;;;;;8.83;3.83;;;9.40;99.90;;;;;;4992915;28;20713;-73
2023/05/26 03:08:37;;;;;;;12.93;2.77;;;9.40;99.90;;;;;;4992769;28;20206;-73
2023/05/26 03:11:03;;;;;;;6.23;2.90;;;9.40;99.90;;;;;;4993112;28;20573;-71
2023/05/26 03:13:28;;;;;;;9.70;3.37;;;9.40;99.90;;;;;;4993137;28;20431;-71
2023/05/26 03:15:54;;;;;;;8.30;4.50;;;9.30;99.90;;;;;;4993149;28;20176;-71
2023/05/26 03:18:20;;;;;;;9.60;4.43;;;9.30;99.90;;;;;;4992350;28;20239;-72
2023/05/26 03:20:46;;;;;;;7.63;3.43;;;9.30;99.90;;;;;;4992466;28;20251;-73
2023/05/26 03:23:13;;;;;;;6.37;2.70;;;9.30;99.90;;;;;;4992733;28;20169;-72
2023/05/26 03:25:40;;;;;;;11.10;3.77;;;9.30;99.90;;;;;;4992802;28;20976;-73
2023/05/26 03:28:05;;;;;;;8.43;2.47;;;9.30;99.90;;;;;;4991999;28;20464;-73
2023/05/26 03:30:31;;;;;;;8.83;3.17;;;9.20;99.90;;;;;;4992606;28;20757;-74
2023/05/26 03:32:56;;;;;;;12.13;3.60;;;9.20;99.90;;;;;;4992487;28;20184;-72
2023/05/26 03:35:22;;;;;;;7.90;2.90;;;9.20;99.90;;;;;;4992364;28;20166;-72
2023/05/26 03:37:49;;;;;;;9.73;3.87;;;9.20;99.90;;;;;;4992177;28;20585;-73
2023/05/26 03:40:14;;;;;;;5.70;2.90;;;9.20;99.90;;;;;;4992794;28;20204;-71
2023/05/26 03:42:40;;;;;;;13.63;2.23;;;9.20;99.90;;;;;;4996016;28;20407;-70
2023/05/26 03:45:06;;;;;;;11.50;3.47;;;9.10;99.90;;;;;;4995970;28;20928;-70
2023/05/26 03:47:32;;;;;;;6.67;2.70;;;9.10;99.90;;;;;;4995548;28;20697;-71
2023/05/26 03:49:57;;;;;;;6.57;3.27;;;9.10;99.90;;;;;;4995790;28;20408;-71
2023/05/26 03:52:23;;;;;;;8.23;3.13;;;9.10;99.90;;;;;;4995757;28;20165;-72
2023/05/26 03:54:48;;;;;;;12.30;3.10;;;9.20;99.90;;;;;;4995794;28;20230;-73
2023/05/26 03:57:14;;;;;;;4.20;2.63;;;9.20;99.90;;;;;;4995492;28;20204;-73
2023/05/26 03:59:39;;;;;;;14.97;3.10;;;9.20;99.90;;;;;;4995899;28;20565;-72
2023/05/26 04:02:05;;;;;;;7.90;2.47;;;9.20;99.90;;;;;;4994413;28;20257;-72
2023/05/26 04:04:30;;;;;;;7.10;2.13;;;9.20;99.90;;;;;;4995591;28;20168;-71
2023/05/26 04:06:56;;;;;;;9.67;3.20;;;9.20;99.90;;;;;;4995256;28;20242;-71
2023/05/26 04:09:21;;;;;;;9.90;3.33;;;9.30;99.90;;;;;;4995623;28;20219;-71
2023/05/26 04:11:47;;;;;;;15.60;3.57;;;9.30;99.90;;;;;;4994991;28;20161;-71
2023/05/26 04:14:13;;;;;;;10.53;2.30;;;9.30;99.90;;;;;;4995251;28;20181;-71
2023/05/26 04:16:38;;;;;;;5.03;2.60;;;9.40;99.90;;;;;;4995312;28;20165;-71
2023/05/26 04:19:04;;;;;;;10.07;3.87;;;9.40;99.90;;;;;;4994991;28;20193;-73
2023/05/26 04:21:30;;;;;;;9.97;4.03;;;9.50;99.90;;;;;;4995484;28;20167;-73
2023/05/26 04:23:56;;;;;;;8.73;2.50;;;9.50;99.90;;;;;;4995416;28;20404;-72
2023/05/26 04:26:21;;;;;;;8.83;5.17;;;9.60;99.90;;;;;;4995143;28;21120;-72
2023/05/26 04:28:48;;;;;;;11.70;2.80;;;9.60;99.90;;;;;;4994991;28;20605;-73
2023/05/26 04:31:16;;;;;;;12.90;3.33;;;9.70;99.90;;;;;;4995161;28;20161;-72
2023/05/26 04:33:44;;;;;;;7.70;4.00;;;9.80;99.90;;;;;;4995303;28;20403;-72
2023/05/26 04:36:10;;;;;;;11.07;3.77;;;9.80;99.90;;;;;;4995059;28;20427;-72
2023/05/26 04:38:37;;;;;;;12.73;3.20;;;9.90;99.90;;;;;;4994800;28;20507;-71
2023/05/26 04:41:07;;;;;;;11.77;3.50;;;10.00;99.90;;;;;;4994943;28;20187;-71
2023/05/26 04:43:35;;;;;;;12.67;3.77;;;10.00;99.90;;;;;;4994871;28;20408;-71
2023/05/26 04:46:02;;;;;;;17.63;4.30;;;10.10;99.90;;;;;;4994820;28;20538;-73
2023/05/26 04:48:29;;;;;;;7.50;3.00;;;10.20;99.90;;;;;;4993017;28;20456;-73
2023/05/26 04:50:54;;;;;;;11.10;4.00;;;10.30;99.90;;;;;;4994834;28;20400;-73
2023/05/26 04:53:20;;;;;;;8.80;3.40;;;10.40;99.90;;;;;;4993654;28;20400;-73
2023/05/26 04:55:47;;;;;;;9.60;3.20;;;10.50;99.90;;;;;;4994763;28;20157;-73
2023/05/26 04:58:13;;;;;;;9.47;3.37;;;10.60;99.90;;;;;;4994411;28;20574;-72
2023/05/26 05:00:38;;;;;;;16.70;7.57;;;10.70;99.90;;;;;;4994842;28;20404;-73
2023/05/26 05:03:04;;;;;;;12.23;4.77;;;10.80;99.90;;;;;;4994855;28;20492;-72
2023/05/26 05:05:30;;;;;;;19.60;4.10;;;10.90;99.90;;;;;;4995165;28;20193;-72
2023/05/26 05:07:56;;;;;;;6.23;3.07;;;11.00;99.90;;;;;;4994265;28;21023;-71
2023/05/26 05:10:21;;;;;;;5.50;3.23;;;11.10;99.90;;;;;;4994291;28;20165;-71
2023/05/26 05:12:47;;;;;;;6.50;3.13;;;11.20;99.90;;;;;;4994321;28;20180;-72
2023/05/26 05:15:13;;;;;;;7.70;3.50;;;11.40;99.90;;;;;;4994283;28;20181;-72
2023/05/26 05:17:38;;;;;;;13.03;3.37;;;11.50;99.90;;;;;;4993941;28;20200;-72
2023/05/26 05:20:07;;;;;;;17.37;5.87;;;11.70;99.90;;;;;;4994349;28;20196;-72
2023/05/26 05:22:33;;;;;;;8.63;3.87;;;11.80;99.90;;;;;;4994289;28;20661;-72
2023/05/26 05:24:58;;;;;;;7.47;3.83;;;12.00;99.90;;;;;;4994271;28;20400;-72
2023/05/26 05:27:24;;;;;;;12.53;4.93;;;12.20;99.90;;;;;;4993699;28;20211;-73
2023/05/26 05:29:49;;;;;;;8.23;4.37;;;12.30;99.90;;;;;;4994086;28;20173;-73
2023/05/26 05:32:15;;;;;;;14.03;5.77;;;12.60;99.90;;;;;;4992806;28;20165;-72
2023/05/26 05:34:41;;;;;;;7.67;3.90;;;12.80;99.90;;;;;;4994010;28;20162;-72
2023/05/26 05:37:06;;;;;;;8.87;4.10;;;13.10;99.90;;;;;;4993633;28;20195;-73
2023/05/26 05:39:32;;;;;;;7.57;4.07;;;13.50;99.90;;;;;;4993897;28;20169;-73
2023/05/26 05:41:57;;;;;;;10.83;4.50;;;13.80;99.90;;;;;;4993846;28;20165;-71
2023/05/26 05:44:23;;;;;;;14.53;5.27;;;14.20;99.90;;;;;;4993834;28;20208;-72
2023/05/26 05:46:48;;;;;;;10.97;4.33;;;14.60;99.90;;;;;;4993491;28;20533;-73
2023/05/26 05:49:14;;;;;;;15.70;7.00;;;15.10;99.90;;;;;;4993456;28;20443;-72
2023/05/26 05:51:39;;;;;;;12.63;5.00;;;15.50;99.90;;;;;;4993646;28;20244;-73
2023/05/26 05:54:05;;;;;;;12.83;4.90;;;15.90;99.90;;;;;;4993593;28;20315;-73
2023/05/26 05:56:30;;;;;;;16.77;6.90;;;16.30;99.90;;;;;;4993556;28;20176;-73
2023/05/26 05:58:56;;;;;;;11.30;5.43;;;16.70;99.90;;;;;;4993150;28;20690;-73
2023/05/26 06:01:21;;;;;;;11.80;4.87;;;17.20;99.90;;;;;;4993408;28;20534;-73
2023/05/26 06:03:47;;;;;;;11.60;5.57;;;17.70;99.90;;;;;;4993084;28;20181;-73
2023/05/26 06:06:13;;;;;;;7.30;4.40;;;18.40;99.90;;;;;;4993327;28;20603;-73
2023/05/26 06:08:38;;;;;;;10.00;5.60;;;19.10;99.90;;;;;;4992958;28;20209;-73
2023/05/26 06:11:04;;;;;;;9.13;4.83;;;19.80;99.90;;;;;;4993315;28;20199;-73
2023/05/26 06:13:30;;;;;;;9.57;5.27;;;20.50;99.90;;;;;;4993248;28;20553;-72
2023/05/26 06:15:56;;;;;;;13.80;4.30;;;21.20;99.90;;;;;;4993334;28;20500;-71
2023/05/26 06:18:21;;;;;;;12.67;6.07;;;21.80;97.80;;;;;;4992928;28;20424;-72
2023/05/26 06:20:47;;;;;;;8.20;5.30;;;22.20;92.90;;;;;;4993280;28;20200;-73
2023/05/26 06:23:12;;;;;;;11.00;5.67;;;22.40;89.10;;;;;;4993148;28;20196;-72
2023/05/26 06:25:38;;;;;;;12.43;5.13;;;22.40;83.60;;;;;;4993130;28;20189;-72
2023/05/26 06:28:03;;;;;;;10.77;6.30;;;22.30;80.80;;;;;;4992755;28;20235;-72
2023/05/26 06:30:29;;;;;;;12.80;6.23;;;22.20;78.60;;;;;;4993199;28;20176;-72
2023/05/26 06:32:55;;;;;;;11.33;6.93;;;21.90;77.00;;;;;;4992732;28;20164;-70
2023/05/26 06:35:22;;;;;;;12.00;6.23;;;21.70;76.70;;;;;;4992921;28;20165;-67
2023/05/26 06:37:47;;;;;;;11.20;6.63;;;21.40;76.70;;;;;;4992454;28;20432;-67
2023/05/26 06:40:13;;;;;;;13.40;7.70;;;21.00;77.20;;;;;;4992545;28;20410;-70
2023/05/26 06:42:38;;;;;;;13.33;7.77;;;20.60;77.80;;;;;;4992725;28;20524;-69
2023/05/26 06:45:04;;;;;;;13.77;7.80;;;20.10;79.00;;;;;;4992607;28;20272;-67
2023/05/26 06:47:30;;;;;;;18.40;7.57;;;19.70;80.90;;;;;;4992315;28;20210;-66
2023/05/26 06:49:55;;;;;;;24.03;8.63;;;19.50;84.10;;;;;;4992648;28;20404;-67
2023/05/26 06:52:21;;;;;;;16.07;9.47;;;19.40;86.70;;;;;;4992663;28;20169;-67
2023/05/26 06:54:47;;;;;;;11.47;7.13;;;19.30;88.80;;;;;;4992557;28;20517;-68
2023/05/26 06:57:13;;;;;;;11.27;7.73;;;19.20;90.40;;;;;;4992257;28;20185;-68
2023/05/26 06:59:41;;;;;;;14.47;8.47;;;19.10;91.10;;;;;;4992484;28;20222;-68
2023/05/26 07:02:06;;;;;;;11.17;7.10;;;19.00;92.00;;;;;;4992591;28;20499;-68
2023/05/26 07:04:32;;;;;;;10.80;7.27;;;19.00;92.60;;;;;;4992615;28;20495;-68
2023/05/26 07:06:58;;;;;;;13.17;8.60;;;19.00;93.30;;;;;;4992208;28;20204;-68
2023/05/26 07:09:23;;;;;;;22.50;11.23;;;19.10;94.10;;;;;;4992555;28;20299;-67
2023/05/26 07:11:49;;;;;;;12.03;7.23;;;19.20;93.90;;;;;;4992521;28;20165;-68
2023/05/26 07:14:14;;;;;;;23.23;7.43;;;19.60;96.90;;;;;;4992329;28;20184;-68
2023/05/26 07:16:40;;;;;;;14.03;7.47;;;21.00;99.00;;;;;;4995213;28;20172;-68
2023/05/26 07:19:05;;;;;;;12.20;8.63;;;22.60;93.00;;;;;;4996261;28;20193;-68
2023/05/26 07:21:31;;;;;;;12.73;7.93;;;23.80;83.60;;;;;;4996382;28;20165;-68
2023/05/26 07:23:57;;;;;;;11.77;7.17;;;24.30;75.10;;;;;;4996411;28;20165;-69
2023/05/26 07:26:22;;;;;;;15.67;8.13;;;24.50;70.90;;;;;;4996382;28;20669;-68
2023/05/26 07:28:50;;;;;;;18.73;6.57;;;24.70;67.30;;;;;;4996003;28;20262;-68
2023/05/26 07:31:16;;;;;;;11.10;7.50;;;25.30;64.80;;;;;;4996259;28;20161;-67
2023/05/26 07:33:41;;;;;;;15.10;6.10;;;25.60;60.30;;;;;;4996153;28;20502;-67
2023/05/26 07:36:07;;;;;;;14.33;6.33;;;26.00;59.40;;;;;;4996156;28;20173;-68
2023/05/26 07:38:32;;;;;;;8.47;5.97;;;26.70;57.60;;;;;;4995739;28;20271;-67
2023/05/26 07:40:58;;;;;;;10.50;6.60;;;26.70;54.60;;;;;;4996101;28;20173;-67
2023/05/26 07:43:24;;;;;;;16.73;7.23;;;26.50;53.10;;;;;;4995898;28;20662;-67
2023/05/26 07:45:49;;;;;;;12.97;7.03;;;26.00;52.90;;;;;;4996061;28;20239;-67
2023/05/26 07:48:15;;;;;;;10.00;5.57;;;26.00;54.70;;;;;;4995458;28;20227;-69
2023/05/26 07:50:41;;;;;;;13.93;5.97;;;26.90;53.60;;;;;;4995919;28;20169;-68
2023/05/26 07:53:07;;;;;;;11.73;6.40;;;28.00;53.10;;;;;;4995869;28;20434;-69
2023/05/26 07:55:32;;;;;;;8.10;6.27;;;29.90;51.00;;;;;;4995522;28;20487;-68
2023/05/26 07:57:58;;;;;;;8.63;5.60;;;32.00;48.10;;;;;;4994926;28;20419;-69
2023/05/26 08:00:24;;;;;;;9.87;6.57;;;33.30;43.30;;;;;;4995655;28;20169;-70
2023/05/26 08:02:50;;;;;;;7.87;5.20;;;34.20;41.50;;;;;;4995867;28;20195;-69
2023/05/26 08:05:16;;;;;;;9.73;5.13;;;35.80;39.80;;;;;;4995645;28;20558;-70
2023/05/26 08:07:42;;;;;;;8.73;5.07;;;37.10;36.40;;;;;;4995169;28;20481;-69
2023/05/26 08:10:07;;;;;;;9.40;4.90;;;37.80;33.30;;;;;;4995582;28;20244;-70
2023/05/26 08:12:33;;;;;;;9.77;5.47;;;38.80;32.30;;;;;;4995046;28;20268;-70
2023/05/26 08:14:59;;;;;;;8.23;5.80;;;39.60;30.70;;;;;;4995504;28;20235;-71
2023/05/26 08:17:24;;;;;;;14.43;6.33;;;39.90;29.70;;;;;;4995112;28;20182;-71
2023/05/26 08:19:50;;;;;;;8.77;5.20;;;40.70;29.10;;;;;;4995467;28;20169;-69
2023/05/26 08:22:15;;;;;;;9.00;5.80;;;40.50;27.80;;;;;;4995075;28;20169;-69
2023/05/26 08:24:41;;;;;;;10.77;6.07;;;39.40;27.50;;;;;;4995284;28;20287;-69
2023/05/26 08:27:08;;;;;;;9.97;5.57;;;39.00;28.20;;;;;;4994538;28;20208;-70
2023/05/26 08:29:33;;;;;;;6.07;5.33;;;39.20;28.10;;;;;;4995160;28;20189;-70
2023/05/26 08:31:59;;;;;;;9.90;5.70;;;39.60;28.10;;;;;;4995096;28;20414;-70
2023/05/26 08:34:24;;;;;;;8.80;6.20;;;40.20;27.40;;;;;;4995242;28;20215;-69
2023/05/26 08:36:50;;;;;;;7.83;4.30;;;40.50;27.20;;;;;;4994708;28;20165;-68
2023/05/26 08:39:15;;;;;;;7.63;5.57;;;41.20;27.10;;;;;;4994972;28;20220;-70
2023/05/26 08:41:51;;;;;;;8.50;5.90;;;41.70;26.60;;;;;;4994937;28;20161;-70
2023/05/26 08:44:17;;;;;;;9.87;6.37;;;42.40;26.20;;;;;;4994959;28;20215;-70
2023/05/26 08:46:48;;;;;;;8.63;5.63;;;43.20;25.40;;;;;;4994769;28;20435;-69
2023/05/26 08:49:17;;;;;;;10.17;6.50;;;43.80;25.30;;;;;;4994652;28;20403;-68
2023/05/26 08:51:46;;;;;;;10.33;6.30;;;44.60;24.80;;;;;;4994755;28;20930;-69
2023/05/26 08:54:12;;;;;;;10.23;6.10;;;45.40;24.20;;;;;;4994751;28;20401;-69
2023/05/26 08:56:37;;;;;;;8.83;6.13;;;45.90;24.00;;;;;;4994663;28;20804;-69
2023/05/26 08:59:08;;;;;;;9.67;6.10;;;46.40;23.40;;;;;;4994324;28;20192;-69
2023/05/26 09:01:34;;;;;;;11.20;5.00;;;46.20;22.90;;;;;;4994581;28;20262;-70
2023/05/26 09:03:59;;;;;;;6.80;5.80;;;45.90;23.10;;;;;;4994712;28;20474;-69
2023/05/26 09:06:28;;;;;;;11.80;6.10;;;46.30;23.10;;;;;;4994555;28;20175;-69
2023/05/26 09:08:53;;;;;;;7.20;5.33;;;46.80;23.10;;;;;;4994073;28;20287;-70
2023/05/26 09:11:28;;;;;;;8.10;5.30;;;47.50;22.90;;;;;;4994501;28;20415;-70
2023/05/26 09:13:57;;;;;;;7.50;5.67;;;48.00;22.10;;;;;;4994312;28;20275;-69
2023/05/26 09:16:26;;;;;;;7.40;6.13;;;48.40;21.90;;;;;;4994472;28;20383;-70
2023/05/26 09:19:01;;;;;;;7.83;5.00;;;48.00;21.40;;;;;;4993954;28;20431;-69
2023/05/26 09:21:27;;;;;;;8.87;4.80;;;47.80;21.50;;;;;;4994280;28;20880;-70
2023/05/26 09:23:55;;;;;;;7.40;5.73;;;47.90;21.80;;;;;;4994280;28;20454;-70
2023/05/26 09:26:33;;;;;;;8.10;5.80;;;48.20;21.50;;;;;;4994199;28;20410;-70
2023/05/26 09:29:00;;;;;;;6.37;4.97;;;48.60;21.40;;;;;;4993827;28;20481;-70
2023/05/26 09:31:35;;;;;;;9.10;5.50;;;49.20;21.30;;;;;;4994029;28;20383;-70
2023/05/26 09:34:01;;;;;;;7.83;5.30;;;49.60;21.30;;;;;;4993990;28;20439;-70
2023/05/26 09:36:26;;;;;;;8.93;5.20;;;50.10;21.00;;;;;;4993907;28;20819;-70
2023/05/26 09:38:52;;;;;;;5.77;4.50;;;50.10;20.80;;;;;;4992930;28;20752;-71
2023/05/26 09:41:19;;;;;;;6.13;5.20;;;50.00;20.50;;;;;;4993843;28;20165;-71
2023/05/26 09:43:45;;;;;;;8.47;6.07;;;50.10;20.00;;;;;;4993560;28;20168;-70
2023/05/26 09:46:22;;;;;;;11.37;5.80;;;50.30;20.40;;;;;;4993781;28;20744;-70
2023/05/26 09:48:51;;;;;;;8.40;5.57;;;50.50;20.20;;;;;;4993402;28;20235;-70
2023/05/26 09:51:28;;;;;;;8.40;5.50;;;50.50;20.50;;;;;;4993742;28;20400;-70
2023/05/26 09:53:54;;;;;;;9.23;5.23;;;50.60;20.00;;;;;;4994024;28;20906;-70
2023/05/26 09:56:20;;;;;;;6.97;4.80;;;50.90;20.00;;;;;;4993529;28;20487;-71
2023/05/26 09:58:47;;;;;;;9.03;5.00;;;51.00;19.80;;;;;;4993103;28;20197;-70
2023/05/26 10:01:13;;;;;;;9.03;5.73;;;51.20;19.90;;;;;;4993596;28;20408;-71
2023/05/26 10:03:38;;;;;;;10.63;5.80;;;51.40;19.80;;;;;;4993222;28;20412;-71
2023/05/26 10:06:05;;;;;;;7.20;4.83;;;51.50;19.60;;;;;;4993469;28;20400;-71
2023/05/26 10:08:32;;;;;;;9.47;5.53;;;51.50;19.50;;;;;;4993065;28;20244;-71
2023/05/26 10:10:58;;;;;;;7.73;5.10;;;51.40;19.40;;;;;;4993277;28;20404;-71
2023/05/26 10:13:23;;;;;;;6.60;4.83;;;51.10;19.80;;;;;;4993159;28;20466;-71
2023/05/26 10:15:49;;;;;;;6.90;4.90;;;51.10;19.40;;;;;;4993281;28;20224;-70
2023/05/26 10:18:15;;;;;;;8.40;5.20;;;51.10;19.30;;;;;;4992519;28;20275;-71
2023/05/26 10:20:46;;;;;;;8.67;5.10;;;50.30;19.40;;;;;;4993310;28;20581;-70
2023/05/26 10:23:24;;;;;;;7.07;4.97;;;50.20;19.70;;;;;;4993182;28;20562;-70
2023/05/26 10:25:49;;;;;;;10.87;5.37;;;50.20;19.50;;;;;;4993207;28;20467;-70
2023/05/26 10:28:30;;;;;;;6.93;5.20;;;50.30;19.80;;;;;;4992690;28;20492;-70
2023/05/26 10:30:59;;;;;;;7.43;6.17;;;50.50;19.60;;;;;;4993019;28;20167;-69
2023/05/26 10:33:45;;;;;;;6.43;4.90;;;50.90;19.70;;;;;;4992954;28;20495;-69
2023/05/26 10:36:15;;;;;;;11.10;5.30;;;51.10;19.50;;;;;;4992963;28;20431;-69
2023/05/26 10:38:47;;;;;;;9.17;5.60;;;51.30;19.50;;;;;;4992451;28;20460;-69
2023/05/26 10:41:28;;;;;;;6.23;4.90;;;51.50;19.50;;;;;;4992907;28;20435;-69
2023/05/26 10:43:53;;;;;;;7.53;4.93;;;51.30;19.40;;;;;;4992781;28;20375;-69
2023/05/26 10:46:19;;;;;;;6.80;4.97;;;51.40;19.60;;;;;;4992840;28;20459;-69
2023/05/26 10:48:58;;;;;;;8.73;4.83;;;51.50;18.70;;;;;;4992318;28;20192;-68
2023/05/26 10:51:28;;;;;;;6.27;4.33;;;51.30;18.90;;;;;;4992694;28;20173;-68
2023/05/26 10:53:56;;;;;;;5.67;5.00;;;51.40;19.10;;;;;;4992704;28;20406;-71
2023/05/26 10:56:42;;;;;;;12.50;5.97;;;51.50;18.70;;;;;;4992366;28;20415;-70
2023/05/26 10:59:08;;;;;;;6.80;5.30;;;51.60;18.60;;;;;;4991926;28;20470;-70
2023/05/26 11:01:33;;;;;;;8.23;4.23;;;51.70;19.00;;;;;;4992591;28;20408;-69
2023/05/26 11:04:05;;;;;;;6.67;4.70;;;51.80;19.10;;;;;;4992554;28;20161;-71
2023/05/26 11:07:00;;;;;;;8.37;4.47;;;52.10;18.80;;;;;;4992596;28;20207;-70
2023/05/26 11:09:27;;;;;;;8.67;4.67;;;52.20;18.80;;;;;;4992574;28;20944;-69
2023/05/26 11:11:52;;;;;;;13.83;6.00;;;52.30;18.80;;;;;;4992543;28;20463;-70
2023/05/26 11:14:25;;;;;;;7.63;4.57;;;52.50;18.80;;;;;;4992374;28;20420;-70
2023/05/26 11:16:54;;;;;;;11.00;6.03;;;52.50;18.60;;;;;;4992024;28;20161;-70
2023/05/26 11:19:31;;;;;;;7.07;5.17;;;52.60;18.40;;;;;;4992400;28;20383;-70
2023/05/26 11:21:58;;;;;;;5.23;4.10;;;52.70;18.30;;;;;;4992507;28;20490;-70
2023/05/26 11:24:24;;;;;;;5.97;4.37;;;52.70;18.20;;;;;;4992327;28;20412;-70
2023/05/26 11:26:50;;;;;;;5.13;4.50;;;52.70;18.30;;;;;;4992186;28;20816;-70
2023/05/26 11:29:15;;;;;;;9.30;5.10;;;52.90;18.50;;;;;;4992383;28;20400;-70
2023/05/26 11:31:46;;;;;;;9.33;5.20;;;53.10;18.40;;;;;;4992388;28;20536;-70
2023/05/26 11:34:12;;;;;;;9.80;6.03;;;53.40;18.50;;;;;;4992467;28;20177;-69
2023/05/26 11:36:37;;;;;;;8.40;6.37;;;53.50;18.20;;;;;;4992235;28;20911;-71
2023/05/26 11:39:04;;;;;;;9.03;5.20;;;53.60;18.10;;;;;;4991828;28;20251;-70
2023/05/26 11:41:29;;;;;;;7.03;6.17;;;53.60;18.00;;;;;;4992324;28;20818;-71
2023/05/26 11:43:56;;;;;;;6.57;4.83;;;53.70;17.80;;;;;;4992273;28;20411;-71
2023/05/26 11:46:23;;;;;;;10.50;5.43;;;53.60;17.80;;;;;;4992243;28;20200;-71
2023/05/26 11:48:50;;;;;;;11.03;5.90;;;53.50;18.00;;;;;;4991874;28;20432;-69
2023/05/26 11:51:19;;;;;;;7.73;5.13;;;52.20;17.50;;;;;;4992133;28;20442;-70
2023/05/26 11:53:46;;;;;;;7.07;4.50;;;50.20;17.90;;;;;;4992196;28;20412;-70
2023/05/26 11:56:13;;;;;;;10.77;5.33;;;48.50;18.80;;;;;;4992212;28;20394;-68
2023/05/26 11:58:47;;;;;;;8.20;7.17;;;48.50;19.50;;;;;;4991850;28;20942;-70
2023/05/26 12:01:13;;;;;;;7.20;4.90;;;48.60;19.20;;;;;;4992293;28;20408;-70
2023/05/26 12:03:41;;;;;;;11.33;4.80;;;48.10;19.10;;;;;;4995585;28;20383;-70
2023/05/26 12:06:28;;;;;;;11.23;6.10;;;48.00;19.30;;;;;;4995624;28;20415;-70
2023/05/26 12:08:57;;;;;;;8.73;4.77;;;48.30;19.40;;;;;;4994994;28;20836;-70
2023/05/26 12:11:28;;;;;;;9.80;5.23;;;49.10;19.50;;;;;;4995525;28;20386;-69
2023/05/26 12:14:03;;;;;;;10.03;5.53;;;49.70;19.30;;;;;;4995319;28;20435;-71
2023/05/26 12:16:35;;;;;;;6.77;4.80;;;50.20;19.10;;;;;;4995384;28;20385;-69
2023/05/26 12:19:06;;;;;;;7.73;4.07;;;50.20;18.70;;;;;;4994998;28;20853;-70
2023/05/26 12:21:42;;;;;;;9.47;4.90;;;49.30;19.00;;;;;;4995369;28;20409;-70
2023/05/26 12:24:09;;;;;;;5.97;4.87;;;49.20;19.10;;;;;;4995214;28;20446;-69
2023/05/26 12:26:35;;;;;;;7.63;4.90;;;48.60;19.20;;;;;;4995095;28;20457;-71
2023/05/26 12:29:04;;;;;;;6.30;5.50;;;48.70;19.40;;;;;;4994915;28;20216;-70
2023/05/26 12:31:48;;;;;;;5.93;4.40;;;49.00;19.30;;;;;;4993713;28;20587;-70
2023/05/26 12:34:18;;;;;;;9.13;5.43;;;49.30;19.10;;;;;;4995167;28;20408;-70
2023/05/26 12:36:45;;;;;;;12.53;5.67;;;49.60;19.60;;;;;;4995077;28;20402;-70
2023/05/26 12:39:12;;;;;;;7.53;4.57;;;49.90;19.50;;;;;;4994466;28;20998;-69
2023/05/26 12:41:40;;;;;;;7.27;4.80;;;50.00;19.00;;;;;;4995095;28;20410;-70
2023/05/26 12:44:05;;;;;;;7.07;4.80;;;50.10;19.20;;;;;;4994936;28;20436;-70
2023/05/26 12:46:31;;;;;;;11.83;5.50;;;50.20;19.20;;;;;;4994679;28;20440;-70